DLH885 EETN-EDDF
Flight info
| Callsign | DLH885 |
|---|---|
| Flight time | 2h 15m |
| Altitude | 36000 |
| Route | LONSA DCT SUVIX DCT PIMEX P739 DEREX DCT KOLJA DCT GOSOT DCT BANUB DCT POVEL DCT RIMET/N0409F310 T157 KOKEB/N0354F230 T157 KERAX KERAX5A |
| Aircraft | A21N/M-SDE2E3FGIJ1LORWXYZ/HB1 |
Departure
| Time | 2026-05-06 13:06 |
|---|---|
| Airport | Lennart Meri Tallinn Airport (EETN) |
Arrival
| Time | 2026-05-06 15:22 |
|---|---|
| Airport | Frankfurt Main Airport (EDDF) |
| Time | Latitude | Longitude | Altitude | Speed | Heading |
|---|---|---|---|---|---|
| 2026-05-06 12:29 | 59.41581 | 24.80134 | 167 ft | 0 kts | 0° |
| 2026-05-06 12:56 | 59.41568 | 24.80134 | 167 ft | 4 kts | 0° |
| 2026-05-06 12:56 | 59.41541 | 24.80133 | 167 ft | 4 kts | 0° |
| 2026-05-06 12:57 | 59.41515 | 24.80133 | 167 ft | 4 kts | 0° |
| 2026-05-06 12:57 | 59.41488 | 24.80132 | 167 ft | 3 kts | 0° |
| 2026-05-06 12:57 | 59.41486 | 24.80132 | 167 ft | 0 kts | 0° |
| 2026-05-06 12:59 | 59.41496 | 24.80133 | 167 ft | 4 kts | 8° |
| 2026-05-06 12:59 | 59.41520 | 24.80178 | 167 ft | 7 kts | 68° |
| 2026-05-06 13:00 | 59.41529 | 24.80302 | 167 ft | 12 kts | 90° |
| 2026-05-06 13:00 | 59.41519 | 24.80484 | 167 ft | 14 kts | 99° |
| 2026-05-06 13:00 | 59.41504 | 24.80692 | 167 ft | 16 kts | 91° |
| 2026-05-06 13:00 | 59.41503 | 24.80925 | 167 ft | 18 kts | 89° |
| 2026-05-06 13:01 | 59.41504 | 24.81176 | 167 ft | 19 kts | 89° |
| 2026-05-06 13:01 | 59.41505 | 24.81451 | 167 ft | 21 kts | 90° |
| 2026-05-06 13:01 | 59.41504 | 24.81745 | 167 ft | 22 kts | 90° |
| 2026-05-06 13:01 | 59.41503 | 24.82057 | 167 ft | 23 kts | 90° |
| 2026-05-06 13:02 | 59.41500 | 24.82387 | 167 ft | 25 kts | 91° |
| 2026-05-06 13:02 | 59.41498 | 24.82733 | 167 ft | 26 kts | 90° |
| 2026-05-06 13:02 | 59.41498 | 24.83093 | 167 ft | 27 kts | 90° |
| 2026-05-06 13:02 | 59.41496 | 24.83472 | 167 ft | 28 kts | 90° |
| 2026-05-06 13:03 | 59.41496 | 24.83866 | 167 ft | 30 kts | 90° |
| 2026-05-06 13:03 | 59.41496 | 24.84230 | 167 ft | 24 kts | 90° |
| 2026-05-06 13:03 | 59.41495 | 24.84572 | 167 ft | 26 kts | 90° |
| 2026-05-06 13:03 | 59.41493 | 24.84932 | 167 ft | 27 kts | 90° |
| 2026-05-06 13:04 | 59.41491 | 24.85309 | 167 ft | 28 kts | 89° |
| 2026-05-06 13:04 | 59.41493 | 24.85704 | 167 ft | 30 kts | 89° |
| 2026-05-06 13:04 | 59.41494 | 24.86021 | 167 ft | 23 kts | 90° |
| 2026-05-06 13:04 | 59.41493 | 24.86342 | 167 ft | 24 kts | 90° |
| 2026-05-06 13:05 | 59.41492 | 24.86558 | 167 ft | 6 kts | 91° |
| 2026-05-06 13:05 | 59.41483 | 24.86656 | 167 ft | 9 kts | 123° |
| 2026-05-06 13:05 | 59.41415 | 24.86709 | 167 ft | 13 kts | 181° |
| 2026-05-06 13:05 | 59.41319 | 24.86663 | 167 ft | 17 kts | 249° |
| 2026-05-06 13:06 | 59.41319 | 24.86218 | 166 ft | 65 kts | 271° |
| 2026-05-06 13:06 | 59.41323 | 24.84834 | 168 ft | 137 kts | 270° |
| 2026-05-06 13:06 | 59.41315 | 24.82621 | 384 ft | 175 kts | 271° |
| 2026-05-06 13:06 | 59.41295 | 24.80169 | 1177 ft | 184 kts | 270° |
| 2026-05-06 13:07 | 59.41179 | 24.77638 | 2074 ft | 189 kts | 258° |
| 2026-05-06 13:07 | 59.40519 | 24.75444 | 2936 ft | 186 kts | 234° |
| 2026-05-06 13:07 | 59.39734 | 24.73416 | 3649 ft | 193 kts | 235° |
| 2026-05-06 13:07 | 59.38933 | 24.71173 | 4191 ft | 208 kts | 236° |
| 2026-05-06 13:08 | 59.38088 | 24.68752 | 4726 ft | 226 kts | 236° |
| 2026-05-06 13:08 | 59.37169 | 24.66098 | 5146 ft | 249 kts | 237° |
| 2026-05-06 13:08 | 59.36167 | 24.63199 | 5794 ft | 262 kts | 236° |
| 2026-05-06 13:08 | 59.35135 | 24.60218 | 6663 ft | 265 kts | 237° |
| 2026-05-06 13:09 | 59.34098 | 24.57219 | 7587 ft | 266 kts | 237° |
| 2026-05-06 13:09 | 59.33052 | 24.54194 | 8452 ft | 269 kts | 237° |
| 2026-05-06 13:09 | 59.31999 | 24.51152 | 9351 ft | 271 kts | 238° |
| 2026-05-06 13:09 | 59.30935 | 24.48090 | 10199 ft | 273 kts | 238° |
| 2026-05-06 13:10 | 59.29833 | 24.44913 | 10626 ft | 290 kts | 238° |
| 2026-05-06 13:10 | 59.28674 | 24.41568 | 11150 ft | 302 kts | 238° |
| 2026-05-06 13:10 | 59.27485 | 24.38151 | 11897 ft | 305 kts | 238° |
| 2026-05-06 13:10 | 59.26288 | 24.34723 | 12740 ft | 306 kts | 238° |
| 2026-05-06 13:11 | 59.25087 | 24.31281 | 13600 ft | 306 kts | 238° |
| 2026-05-06 13:11 | 59.23902 | 24.27889 | 14371 ft | 307 kts | 238° |
| 2026-05-06 13:11 | 59.22692 | 24.24434 | 15122 ft | 308 kts | 238° |
| 2026-05-06 13:11 | 59.21481 | 24.20978 | 15876 ft | 309 kts | 238° |
| 2026-05-06 13:12 | 59.20262 | 24.17502 | 16598 ft | 311 kts | 238° |
| 2026-05-06 13:12 | 59.19032 | 24.14009 | 17329 ft | 312 kts | 238° |
| 2026-05-06 13:12 | 59.17797 | 24.10501 | 18058 ft | 314 kts | 238° |
| 2026-05-06 13:12 | 59.16559 | 24.06986 | 18704 ft | 315 kts | 238° |
| 2026-05-06 13:13 | 59.15310 | 24.03447 | 19324 ft | 317 kts | 238° |
| 2026-05-06 13:13 | 59.14059 | 23.99904 | 19944 ft | 318 kts | 238° |
| 2026-05-06 13:13 | 59.12802 | 23.96360 | 20561 ft | 319 kts | 238° |
| 2026-05-06 13:13 | 59.11539 | 23.92801 | 21131 ft | 320 kts | 238° |
| 2026-05-06 13:14 | 59.10267 | 23.89222 | 21702 ft | 323 kts | 237° |
| 2026-05-06 13:14 | 59.09004 | 23.85667 | 22276 ft | 325 kts | 237° |
| 2026-05-06 13:14 | 59.07741 | 23.81947 | 22843 ft | 326 kts | 240° |
| 2026-05-06 13:14 | 59.06568 | 23.78164 | 23406 ft | 328 kts | 240° |
| 2026-05-06 13:15 | 59.05412 | 23.74397 | 23893 ft | 329 kts | 240° |
| 2026-05-06 13:15 | 59.04233 | 23.70562 | 24351 ft | 331 kts | 240° |
| 2026-05-06 13:15 | 59.03051 | 23.66721 | 24803 ft | 333 kts | 240° |
| 2026-05-06 13:15 | 59.01854 | 23.62846 | 25247 ft | 334 kts | 240° |
| 2026-05-06 13:16 | 59.00655 | 23.58972 | 25692 ft | 336 kts | 240° |
| 2026-05-06 13:16 | 58.99449 | 23.55089 | 26119 ft | 337 kts | 240° |
| 2026-05-06 13:16 | 58.98233 | 23.51189 | 26576 ft | 339 kts | 239° |
| 2026-05-06 13:16 | 58.97009 | 23.47271 | 27002 ft | 340 kts | 239° |
| 2026-05-06 13:17 | 58.95781 | 23.43343 | 27413 ft | 341 kts | 239° |
| 2026-05-06 13:17 | 58.94548 | 23.39402 | 27817 ft | 343 kts | 239° |
| 2026-05-06 13:17 | 58.93309 | 23.35449 | 28205 ft | 344 kts | 239° |
| 2026-05-06 13:17 | 58.92061 | 23.31475 | 28520 ft | 346 kts | 239° |
| 2026-05-06 13:18 | 58.90803 | 23.27473 | 28853 ft | 349 kts | 239° |
| 2026-05-06 13:18 | 58.89539 | 23.23462 | 29185 ft | 351 kts | 238° |
| 2026-05-06 13:18 | 58.88260 | 23.19413 | 29528 ft | 353 kts | 238° |
| 2026-05-06 13:18 | 58.86981 | 23.15356 | 29866 ft | 355 kts | 238° |
| 2026-05-06 13:19 | 58.85691 | 23.11277 | 30183 ft | 356 kts | 238° |
| 2026-05-06 13:19 | 58.84394 | 23.07185 | 30467 ft | 358 kts | 238° |
| 2026-05-06 13:19 | 58.83106 | 23.03130 | 30741 ft | 359 kts | 238° |
| 2026-05-06 13:19 | 58.81797 | 22.99021 | 31015 ft | 360 kts | 238° |
| 2026-05-06 13:20 | 58.80483 | 22.94896 | 31279 ft | 362 kts | 238° |
| 2026-05-06 13:20 | 58.79158 | 22.90753 | 31543 ft | 363 kts | 238° |
| 2026-05-06 13:20 | 58.77828 | 22.86609 | 31800 ft | 364 kts | 238° |
| 2026-05-06 13:20 | 58.76492 | 22.82458 | 32062 ft | 365 kts | 238° |
| 2026-05-06 13:21 | 58.75154 | 22.78295 | 32315 ft | 366 kts | 238° |
| 2026-05-06 13:21 | 58.73814 | 22.74132 | 32635 ft | 365 kts | 238° |
| 2026-05-06 13:21 | 58.72475 | 22.69976 | 32839 ft | 365 kts | 238° |
| 2026-05-06 13:21 | 58.71131 | 22.65812 | 33027 ft | 367 kts | 238° |
| 2026-05-06 13:22 | 58.69782 | 22.61646 | 33294 ft | 367 kts | 238° |
| 2026-05-06 13:22 | 58.68427 | 22.57486 | 33578 ft | 366 kts | 237° |
| 2026-05-06 13:22 | 58.67044 | 22.53381 | 33889 ft | 365 kts | 236° |
| 2026-05-06 13:22 | 58.65659 | 22.49306 | 34161 ft | 364 kts | 236° |
| 2026-05-06 13:23 | 58.64278 | 22.45240 | 34359 ft | 364 kts | 236° |
| 2026-05-06 13:23 | 58.62895 | 22.41165 | 34518 ft | 364 kts | 236° |
| 2026-05-06 13:23 | 58.61510 | 22.37085 | 34679 ft | 365 kts | 237° |
| 2026-05-06 13:23 | 58.60123 | 22.33007 | 34839 ft | 366 kts | 237° |
| 2026-05-06 13:24 | 58.58745 | 22.28962 | 35001 ft | 367 kts | 237° |
| 2026-05-06 13:24 | 58.57347 | 22.24866 | 35141 ft | 367 kts | 237° |
| 2026-05-06 13:24 | 58.55942 | 22.20765 | 35284 ft | 368 kts | 237° |
| 2026-05-06 13:24 | 58.54534 | 22.16658 | 35428 ft | 369 kts | 237° |
| 2026-05-06 13:25 | 58.53127 | 22.12556 | 35505 ft | 370 kts | 237° |
| 2026-05-06 13:25 | 58.50289 | 22.04284 | 35710 ft | 373 kts | 237° |
| 2026-05-06 13:25 | 58.48862 | 22.00138 | 35843 ft | 374 kts | 237° |
| 2026-05-06 13:26 | 58.47427 | 21.95984 | 35978 ft | 375 kts | 236° |
| 2026-05-06 13:26 | 58.44524 | 21.87623 | 36053 ft | 380 kts | 236° |
| 2026-05-06 13:27 | 58.41600 | 21.79203 | 36023 ft | 380 kts | 236° |
| 2026-05-06 13:27 | 58.38673 | 21.70796 | 36018 ft | 380 kts | 236° |
| 2026-05-06 13:28 | 58.35741 | 21.62414 | 36012 ft | 380 kts | 236° |
| 2026-05-06 13:28 | 58.32821 | 21.54092 | 36021 ft | 382 kts | 236° |
| 2026-05-06 13:29 | 58.29859 | 21.45691 | 36024 ft | 383 kts | 236° |
| 2026-05-06 13:29 | 58.26887 | 21.37279 | 36015 ft | 383 kts | 236° |
| 2026-05-06 13:30 | 58.23911 | 21.28879 | 36012 ft | 383 kts | 235° |
| 2026-05-06 13:30 | 58.20839 | 21.20717 | 36013 ft | 383 kts | 229° |
| 2026-05-06 13:31 | 58.17113 | 21.13501 | 36009 ft | 383 kts | 225° |
| 2026-05-06 13:31 | 58.13326 | 21.06393 | 35974 ft | 384 kts | 225° |
| 2026-05-06 13:32 | 58.09522 | 20.99241 | 36003 ft | 386 kts | 225° |
| 2026-05-06 13:32 | 58.05718 | 20.92088 | 36007 ft | 386 kts | 225° |
| 2026-05-06 13:33 | 58.01902 | 20.84944 | 36007 ft | 386 kts | 225° |
| 2026-05-06 13:33 | 57.98082 | 20.77813 | 36004 ft | 386 kts | 225° |
| 2026-05-06 13:34 | 57.94262 | 20.70699 | 36002 ft | 386 kts | 225° |
| 2026-05-06 13:34 | 57.91082 | 20.64806 | 35971 ft | 386 kts | 225° |
| 2026-05-06 13:35 | 57.87236 | 20.57689 | 35997 ft | 388 kts | 225° |
| 2026-05-06 13:35 | 57.83381 | 20.50584 | 35999 ft | 388 kts | 225° |
| 2026-05-06 13:36 | 57.79524 | 20.43488 | 36019 ft | 388 kts | 225° |
| 2026-05-06 13:36 | 57.75689 | 20.36455 | 35997 ft | 388 kts | 224° |
| 2026-05-06 13:37 | 57.71825 | 20.29398 | 35987 ft | 388 kts | 224° |
| 2026-05-06 13:37 | 57.67957 | 20.22347 | 35968 ft | 390 kts | 225° |
| 2026-05-06 13:38 | 57.64349 | 20.14763 | 35986 ft | 391 kts | 229° |
| 2026-05-06 13:38 | 57.60813 | 20.07041 | 35979 ft | 391 kts | 229° |
| 2026-05-06 13:39 | 57.57265 | 19.99348 | 35987 ft | 391 kts | 229° |
| 2026-05-06 13:39 | 57.53712 | 19.91670 | 35984 ft | 391 kts | 228° |
| 2026-05-06 13:40 | 57.50180 | 19.84059 | 35979 ft | 391 kts | 228° |
| 2026-05-06 13:40 | 57.46619 | 19.76412 | 35951 ft | 392 kts | 227° |
| 2026-05-06 13:41 | 57.43037 | 19.68749 | 35978 ft | 393 kts | 227° |
| 2026-05-06 13:41 | 57.39449 | 19.61103 | 35977 ft | 393 kts | 227° |
| 2026-05-06 13:42 | 57.35853 | 19.53467 | 35975 ft | 393 kts | 227° |
| 2026-05-06 13:42 | 57.32253 | 19.45840 | 35979 ft | 393 kts | 227° |
| 2026-05-06 13:43 | 57.28653 | 19.38233 | 35996 ft | 393 kts | 227° |
| 2026-05-06 13:43 | 57.25041 | 19.30631 | 35976 ft | 393 kts | 227° |
| 2026-05-06 13:44 | 57.21432 | 19.23042 | 35976 ft | 393 kts | 227° |
| 2026-05-06 13:44 | 57.17814 | 19.15469 | 35965 ft | 393 kts | 227° |
| 2026-05-06 13:45 | 57.14216 | 19.07975 | 35976 ft | 393 kts | 227° |
| 2026-05-06 13:45 | 57.08772 | 18.96687 | 35964 ft | 393 kts | 227° |
| 2026-05-06 13:46 | 57.05145 | 18.89182 | 35966 ft | 393 kts | 227° |
| 2026-05-06 13:46 | 57.01500 | 18.81657 | 35962 ft | 396 kts | 226° |
| 2026-05-06 13:47 | 56.97831 | 18.74120 | 35966 ft | 396 kts | 226° |
| 2026-05-06 13:47 | 56.94153 | 18.66577 | 35959 ft | 396 kts | 226° |
| 2026-05-06 13:48 | 56.90503 | 18.59115 | 35964 ft | 396 kts | 226° |
| 2026-05-06 13:48 | 56.86816 | 18.51609 | 35960 ft | 396 kts | 226° |
| 2026-05-06 13:49 | 56.83120 | 18.44122 | 35933 ft | 396 kts | 226° |
| 2026-05-06 13:49 | 56.79398 | 18.36586 | 35964 ft | 401 kts | 226° |
| 2026-05-06 13:50 | 56.75679 | 18.29079 | 35955 ft | 401 kts | 226° |
| 2026-05-06 13:50 | 56.71930 | 18.21539 | 35961 ft | 401 kts | 226° |
| 2026-05-06 13:51 | 56.68182 | 18.14026 | 35945 ft | 401 kts | 226° |
| 2026-05-06 13:51 | 56.64423 | 18.06517 | 35956 ft | 401 kts | 226° |
| 2026-05-06 13:52 | 56.60659 | 17.99020 | 35933 ft | 403 kts | 225° |
| 2026-05-06 13:52 | 56.56885 | 17.91529 | 35945 ft | 405 kts | 225° |
| 2026-05-06 13:53 | 56.53076 | 17.83992 | 35937 ft | 406 kts | 225° |
| 2026-05-06 13:53 | 56.49258 | 17.76461 | 35944 ft | 405 kts | 225° |
| 2026-05-06 13:54 | 56.45443 | 17.68958 | 35941 ft | 405 kts | 225° |
| 2026-05-06 13:54 | 56.41621 | 17.61467 | 35936 ft | 405 kts | 225° |
| 2026-05-06 13:55 | 56.37784 | 17.53973 | 35927 ft | 408 kts | 225° |
| 2026-05-06 13:55 | 56.33809 | 17.46653 | 35948 ft | 408 kts | 221° |
| 2026-05-06 13:56 | 56.29695 | 17.39686 | 35935 ft | 408 kts | 224° |
| 2026-05-06 13:56 | 56.25764 | 17.32311 | 35927 ft | 408 kts | 225° |
| 2026-05-06 13:57 | 56.21885 | 17.24840 | 35928 ft | 408 kts | 226° |
| 2026-05-06 13:57 | 56.18314 | 17.16903 | 35922 ft | 408 kts | 229° |
| 2026-05-06 13:58 | 56.14560 | 17.09228 | 35936 ft | 410 kts | 226° |
| 2026-05-06 13:58 | 56.10667 | 17.01752 | 35933 ft | 410 kts | 225° |
| 2026-05-06 13:59 | 56.06781 | 16.94365 | 35922 ft | 410 kts | 225° |
| 2026-05-06 13:59 | 56.02847 | 16.86905 | 35929 ft | 409 kts | 225° |
| 2026-05-06 14:00 | 55.98914 | 16.79650 | 35930 ft | 408 kts | 223° |
| 2026-05-06 14:00 | 55.94802 | 16.72623 | 35922 ft | 410 kts | 223° |
| 2026-05-06 14:01 | 55.90662 | 16.65583 | 35921 ft | 412 kts | 223° |
| 2026-05-06 14:01 | 55.86515 | 16.58552 | 35924 ft | 412 kts | 222° |
| 2026-05-06 14:02 | 55.82365 | 16.51526 | 35926 ft | 412 kts | 223° |
| 2026-05-06 14:02 | 55.78207 | 16.44510 | 35922 ft | 412 kts | 222° |
| 2026-05-06 14:03 | 55.74047 | 16.37515 | 35912 ft | 414 kts | 223° |
| 2026-05-06 14:03 | 55.69878 | 16.30517 | 35912 ft | 415 kts | 223° |
| 2026-05-06 14:04 | 55.65676 | 16.23504 | 35907 ft | 415 kts | 223° |
| 2026-05-06 14:04 | 55.61474 | 16.16510 | 35915 ft | 414 kts | 223° |
| 2026-05-06 14:05 | 55.57268 | 16.09527 | 35918 ft | 414 kts | 222° |
| 2026-05-06 14:05 | 55.53056 | 16.02559 | 35922 ft | 414 kts | 222° |
| 2026-05-06 14:06 | 55.48840 | 15.95605 | 35918 ft | 415 kts | 222° |
| 2026-05-06 14:06 | 55.44619 | 15.88659 | 35923 ft | 415 kts | 223° |
| 2026-05-06 14:07 | 55.40425 | 15.81766 | 35921 ft | 415 kts | 222° |
| 2026-05-06 14:07 | 55.36196 | 15.74852 | 35916 ft | 415 kts | 222° |
| 2026-05-06 14:08 | 55.31965 | 15.67958 | 35914 ft | 415 kts | 222° |
| 2026-05-06 14:08 | 55.27726 | 15.61073 | 35921 ft | 415 kts | 223° |
| 2026-05-06 14:09 | 55.23490 | 15.54207 | 35907 ft | 414 kts | 223° |
| 2026-05-06 14:09 | 55.19259 | 15.47370 | 35909 ft | 414 kts | 223° |
| 2026-05-06 14:10 | 55.15028 | 15.40551 | 35912 ft | 414 kts | 223° |
| 2026-05-06 14:10 | 55.10783 | 15.33745 | 35907 ft | 414 kts | 223° |
| 2026-05-06 14:11 | 55.06564 | 15.26991 | 35916 ft | 414 kts | 222° |
| 2026-05-06 14:11 | 55.02319 | 15.20218 | 35901 ft | 414 kts | 222° |
| 2026-05-06 14:12 | 54.98069 | 15.13445 | 35902 ft | 413 kts | 222° |
| 2026-05-06 14:12 | 54.93827 | 15.06715 | 35898 ft | 413 kts | 222° |
| 2026-05-06 14:13 | 54.89570 | 14.99988 | 35924 ft | 413 kts | 222° |
| 2026-05-06 14:13 | 54.85321 | 14.93281 | 35905 ft | 413 kts | 222° |
| 2026-05-06 14:14 | 54.81089 | 14.86626 | 35894 ft | 413 kts | 223° |
| 2026-05-06 14:14 | 54.76879 | 14.79756 | 35896 ft | 413 kts | 223° |
| 2026-05-06 14:15 | 54.72734 | 14.72936 | 35895 ft | 415 kts | 223° |
| 2026-05-06 14:15 | 54.68545 | 14.66051 | 35893 ft | 416 kts | 223° |
| 2026-05-06 14:16 | 54.64311 | 14.59134 | 35886 ft | 416 kts | 223° |
| 2026-05-06 14:16 | 54.60137 | 14.52331 | 35891 ft | 415 kts | 223° |
| 2026-05-06 14:17 | 54.55930 | 14.45494 | 35879 ft | 415 kts | 223° |
| 2026-05-06 14:17 | 54.51725 | 14.38679 | 35876 ft | 415 kts | 223° |
| 2026-05-06 14:18 | 54.47514 | 14.31879 | 35875 ft | 415 kts | 223° |
| 2026-05-06 14:18 | 54.43298 | 14.25104 | 35872 ft | 414 kts | 223° |
| 2026-05-06 14:19 | 54.39104 | 14.18388 | 35872 ft | 410 kts | 223° |
| 2026-05-06 14:19 | 54.34926 | 14.11719 | 35875 ft | 410 kts | 223° |
| 2026-05-06 14:20 | 54.30770 | 14.05099 | 35870 ft | 410 kts | 223° |
| 2026-05-06 14:20 | 54.26581 | 13.98464 | 35869 ft | 410 kts | 223° |
| 2026-05-06 14:21 | 54.22391 | 13.91840 | 35886 ft | 410 kts | 223° |
| 2026-05-06 14:21 | 54.18189 | 13.85210 | 35874 ft | 411 kts | 223° |
| 2026-05-06 14:22 | 54.13983 | 13.78592 | 35866 ft | 411 kts | 223° |
| 2026-05-06 14:22 | 54.10489 | 13.73110 | 35866 ft | 411 kts | 223° |
| 2026-05-06 14:23 | 54.05592 | 13.65451 | 35848 ft | 411 kts | 223° |
| 2026-05-06 14:23 | 54.01379 | 13.58883 | 35854 ft | 411 kts | 222° |
| 2026-05-06 14:24 | 53.97847 | 13.53395 | 35842 ft | 410 kts | 222° |
| 2026-05-06 14:24 | 53.93632 | 13.46862 | 35849 ft | 410 kts | 222° |
| 2026-05-06 14:25 | 53.89447 | 13.40385 | 35843 ft | 410 kts | 222° |
| 2026-05-06 14:25 | 53.85226 | 13.33875 | 35844 ft | 410 kts | 222° |
| 2026-05-06 14:26 | 53.81005 | 13.27390 | 35841 ft | 410 kts | 222° |
| 2026-05-06 14:26 | 53.76780 | 13.20908 | 35832 ft | 410 kts | 222° |
| 2026-05-06 14:27 | 53.72551 | 13.14448 | 35840 ft | 410 kts | 222° |
| 2026-05-06 14:27 | 53.68308 | 13.07976 | 35843 ft | 412 kts | 222° |
| 2026-05-06 14:28 | 53.64067 | 13.01524 | 35836 ft | 413 kts | 222° |
| 2026-05-06 14:28 | 53.59793 | 12.95049 | 35832 ft | 413 kts | 222° |
| 2026-05-06 14:29 | 53.55517 | 12.88585 | 35831 ft | 413 kts | 222° |
| 2026-05-06 14:29 | 53.51243 | 12.82140 | 35829 ft | 412 kts | 222° |
| 2026-05-06 14:30 | 53.46977 | 12.75722 | 35823 ft | 412 kts | 222° |
| 2026-05-06 14:30 | 53.42730 | 12.69359 | 35824 ft | 411 kts | 222° |
| 2026-05-06 14:31 | 53.38465 | 12.62983 | 35827 ft | 411 kts | 221° |
| 2026-05-06 14:31 | 53.34191 | 12.56616 | 35826 ft | 411 kts | 221° |
| 2026-05-06 14:32 | 53.29918 | 12.50260 | 35814 ft | 409 kts | 221° |
| 2026-05-06 14:32 | 53.25662 | 12.43950 | 35814 ft | 409 kts | 221° |
| 2026-05-06 14:33 | 53.21395 | 12.37642 | 35816 ft | 409 kts | 221° |
| 2026-05-06 14:33 | 53.17127 | 12.31342 | 35825 ft | 410 kts | 221° |
| 2026-05-06 14:34 | 53.12844 | 12.25047 | 35815 ft | 410 kts | 221° |
| 2026-05-06 14:34 | 53.08556 | 12.18772 | 35810 ft | 410 kts | 221° |
| 2026-05-06 14:35 | 53.04304 | 12.12548 | 35812 ft | 410 kts | 221° |
| 2026-05-06 14:35 | 53.00025 | 12.06315 | 35814 ft | 410 kts | 221° |
| 2026-05-06 14:36 | 52.95733 | 12.00085 | 35809 ft | 409 kts | 221° |
| 2026-05-06 14:36 | 52.91443 | 11.93870 | 35808 ft | 409 kts | 221° |
| 2026-05-06 14:37 | 52.87155 | 11.87677 | 35807 ft | 409 kts | 221° |
| 2026-05-06 14:37 | 52.82861 | 11.81490 | 35802 ft | 409 kts | 221° |
| 2026-05-06 14:38 | 52.78575 | 11.75321 | 35758 ft | 406 kts | 221° |
| 2026-05-06 14:38 | 52.76446 | 11.72263 | 35123 ft | 405 kts | 221° |
| 2026-05-06 14:38 | 52.74317 | 11.69207 | 34463 ft | 405 kts | 221° |
| 2026-05-06 14:39 | 52.72202 | 11.66184 | 34025 ft | 402 kts | 221° |
| 2026-05-06 14:39 | 52.70089 | 11.63164 | 33844 ft | 401 kts | 221° |
| 2026-05-06 14:39 | 52.65867 | 11.57123 | 33794 ft | 402 kts | 221° |
| 2026-05-06 14:40 | 52.61627 | 11.51086 | 33798 ft | 403 kts | 221° |
| 2026-05-06 14:40 | 52.57412 | 11.45104 | 33793 ft | 403 kts | 220° |
| 2026-05-06 14:41 | 52.53161 | 11.39092 | 33786 ft | 403 kts | 220° |
| 2026-05-06 14:41 | 52.48916 | 11.33092 | 33785 ft | 403 kts | 220° |
| 2026-05-06 14:42 | 52.44666 | 11.27107 | 33784 ft | 401 kts | 221° |
| 2026-05-06 14:42 | 52.40431 | 11.21163 | 33780 ft | 401 kts | 220° |
| 2026-05-06 14:43 | 52.36194 | 11.15232 | 33779 ft | 401 kts | 220° |
| 2026-05-06 14:43 | 52.31949 | 11.09307 | 33777 ft | 401 kts | 220° |
| 2026-05-06 14:44 | 52.27705 | 11.03400 | 33777 ft | 401 kts | 220° |
| 2026-05-06 14:45 | 52.21378 | 10.94629 | 33778 ft | 397 kts | 220° |
| 2026-05-06 14:45 | 52.17161 | 10.88780 | 33787 ft | 397 kts | 221° |
| 2026-05-06 14:46 | 52.12859 | 10.83050 | 33779 ft | 401 kts | 214° |
| 2026-05-06 14:46 | 52.07893 | 10.78849 | 33774 ft | 403 kts | 206° |
| 2026-05-06 14:47 | 52.02820 | 10.74972 | 33754 ft | 403 kts | 206° |
| 2026-05-06 14:47 | 51.97803 | 10.71093 | 33173 ft | 397 kts | 207° |
| 2026-05-06 14:47 | 51.95313 | 10.69165 | 32467 ft | 397 kts | 206° |
| 2026-05-06 14:48 | 51.92815 | 10.67234 | 31989 ft | 397 kts | 206° |
| 2026-05-06 14:48 | 51.90358 | 10.65338 | 31594 ft | 396 kts | 206° |
| 2026-05-06 14:48 | 51.87877 | 10.63425 | 31204 ft | 395 kts | 206° |
| 2026-05-06 14:48 | 51.85396 | 10.61509 | 30809 ft | 394 kts | 206° |
| 2026-05-06 14:49 | 51.82921 | 10.59601 | 30439 ft | 393 kts | 206° |
| 2026-05-06 14:49 | 51.80452 | 10.57703 | 30058 ft | 392 kts | 206° |
| 2026-05-06 14:49 | 51.77999 | 10.55819 | 29667 ft | 388 kts | 206° |
| 2026-05-06 14:49 | 51.75587 | 10.53972 | 29233 ft | 381 kts | 206° |
| 2026-05-06 14:50 | 51.73210 | 10.52154 | 28804 ft | 373 kts | 206° |
| 2026-05-06 14:50 | 51.70894 | 10.50383 | 28378 ft | 364 kts | 206° |
| 2026-05-06 14:50 | 51.68626 | 10.48656 | 27953 ft | 356 kts | 206° |
| 2026-05-06 14:50 | 51.66415 | 10.46965 | 27539 ft | 348 kts | 207° |
| 2026-05-06 14:51 | 51.64235 | 10.45292 | 27138 ft | 344 kts | 207° |
| 2026-05-06 14:51 | 51.62100 | 10.43656 | 26843 ft | 337 kts | 207° |
| 2026-05-06 14:51 | 51.59993 | 10.42041 | 26572 ft | 335 kts | 207° |
| 2026-05-06 14:51 | 51.57896 | 10.40435 | 26293 ft | 333 kts | 207° |
| 2026-05-06 14:52 | 51.55828 | 10.38852 | 26038 ft | 332 kts | 207° |
| 2026-05-06 14:52 | 51.53741 | 10.37259 | 25784 ft | 331 kts | 207° |
| 2026-05-06 14:52 | 51.51658 | 10.35669 | 25532 ft | 330 kts | 207° |
| 2026-05-06 14:52 | 51.49584 | 10.34086 | 25289 ft | 329 kts | 207° |
| 2026-05-06 14:53 | 51.47519 | 10.32513 | 25043 ft | 328 kts | 207° |
| 2026-05-06 14:53 | 51.45456 | 10.30946 | 24799 ft | 327 kts | 207° |
| 2026-05-06 14:53 | 51.43404 | 10.29387 | 24557 ft | 326 kts | 207° |
| 2026-05-06 14:53 | 51.41355 | 10.27831 | 24316 ft | 325 kts | 207° |
| 2026-05-06 14:54 | 51.39314 | 10.26283 | 24083 ft | 324 kts | 207° |
| 2026-05-06 14:54 | 51.37283 | 10.24745 | 23840 ft | 323 kts | 207° |
| 2026-05-06 14:54 | 51.35250 | 10.23206 | 23587 ft | 324 kts | 208° |
| 2026-05-06 14:54 | 51.33204 | 10.21660 | 23351 ft | 325 kts | 208° |
| 2026-05-06 14:55 | 51.31159 | 10.20115 | 23076 ft | 325 kts | 207° |
| 2026-05-06 14:55 | 51.29119 | 10.18577 | 22797 ft | 323 kts | 207° |
| 2026-05-06 14:55 | 51.27093 | 10.17051 | 22525 ft | 322 kts | 207° |
| 2026-05-06 14:55 | 51.25069 | 10.15528 | 22254 ft | 321 kts | 207° |
| 2026-05-06 14:56 | 51.23047 | 10.14007 | 21976 ft | 320 kts | 207° |
| 2026-05-06 14:56 | 51.21038 | 10.12498 | 21705 ft | 319 kts | 207° |
| 2026-05-06 14:56 | 51.19063 | 10.11013 | 21439 ft | 318 kts | 207° |
| 2026-05-06 14:56 | 51.17067 | 10.09517 | 21169 ft | 316 kts | 207° |
| 2026-05-06 14:57 | 51.15055 | 10.08010 | 20901 ft | 315 kts | 207° |
| 2026-05-06 14:57 | 51.13087 | 10.06534 | 20634 ft | 317 kts | 207° |
| 2026-05-06 14:57 | 51.11097 | 10.05044 | 20382 ft | 316 kts | 207° |
| 2026-05-06 14:57 | 51.09108 | 10.03556 | 20126 ft | 315 kts | 206° |
| 2026-05-06 14:58 | 51.07121 | 10.02071 | 19878 ft | 314 kts | 206° |
| 2026-05-06 14:58 | 51.05147 | 10.00599 | 19631 ft | 313 kts | 206° |
| 2026-05-06 14:58 | 51.03177 | 9.99132 | 19384 ft | 312 kts | 206° |
| 2026-05-06 14:58 | 51.01212 | 9.97669 | 19136 ft | 311 kts | 206° |
| 2026-05-06 14:59 | 50.99253 | 9.96212 | 18885 ft | 310 kts | 206° |
| 2026-05-06 14:59 | 50.97300 | 9.94760 | 18647 ft | 309 kts | 206° |
| 2026-05-06 14:59 | 50.95356 | 9.93319 | 18422 ft | 308 kts | 206° |
| 2026-05-06 14:59 | 50.93413 | 9.91878 | 18185 ft | 307 kts | 206° |
| 2026-05-06 15:00 | 50.91480 | 9.90448 | 17932 ft | 307 kts | 206° |
| 2026-05-06 15:00 | 50.89541 | 9.89013 | 17657 ft | 307 kts | 206° |
| 2026-05-06 15:00 | 50.87634 | 9.87601 | 17387 ft | 306 kts | 206° |
| 2026-05-06 15:00 | 50.85710 | 9.86177 | 17119 ft | 305 kts | 206° |
| 2026-05-06 15:01 | 50.83787 | 9.84758 | 16859 ft | 304 kts | 206° |
| 2026-05-06 15:01 | 50.81874 | 9.83345 | 16592 ft | 303 kts | 206° |
| 2026-05-06 15:01 | 50.79967 | 9.81938 | 16340 ft | 302 kts | 206° |
| 2026-05-06 15:01 | 50.78067 | 9.80539 | 16081 ft | 301 kts | 206° |
| 2026-05-06 15:02 | 50.76169 | 9.79145 | 15829 ft | 300 kts | 206° |
| 2026-05-06 15:02 | 50.74280 | 9.77757 | 15567 ft | 299 kts | 206° |
| 2026-05-06 15:02 | 50.72397 | 9.76373 | 15313 ft | 298 kts | 206° |
| 2026-05-06 15:02 | 50.70521 | 9.74995 | 15066 ft | 297 kts | 206° |
| 2026-05-06 15:03 | 50.68646 | 9.73621 | 14819 ft | 297 kts | 206° |
| 2026-05-06 15:03 | 50.66781 | 9.72256 | 14540 ft | 295 kts | 206° |
| 2026-05-06 15:03 | 50.64918 | 9.70895 | 14210 ft | 295 kts | 206° |
| 2026-05-06 15:03 | 50.63058 | 9.69534 | 13869 ft | 295 kts | 206° |
| 2026-05-06 15:04 | 50.61197 | 9.68175 | 13516 ft | 296 kts | 206° |
| 2026-05-06 15:04 | 50.59319 | 9.66804 | 13121 ft | 297 kts | 206° |
| 2026-05-06 15:04 | 50.57435 | 9.65430 | 12733 ft | 298 kts | 206° |
| 2026-05-06 15:04 | 50.55556 | 9.64061 | 12357 ft | 297 kts | 206° |
| 2026-05-06 15:05 | 50.53681 | 9.62696 | 12006 ft | 297 kts | 206° |
| 2026-05-06 15:05 | 50.51828 | 9.61349 | 11631 ft | 297 kts | 206° |
| 2026-05-06 15:05 | 50.49953 | 9.59988 | 11249 ft | 297 kts | 206° |
| 2026-05-06 15:05 | 50.48081 | 9.58610 | 10860 ft | 295 kts | 207° |
| 2026-05-06 15:06 | 50.46412 | 9.56761 | 10488 ft | 292 kts | 222° |
| 2026-05-06 15:06 | 50.45132 | 9.54373 | 10198 ft | 283 kts | 239° |
| 2026-05-06 15:06 | 50.44438 | 9.51546 | 9936 ft | 275 kts | 255° |
| 2026-05-06 15:06 | 50.43985 | 9.48623 | 9671 ft | 276 kts | 246° |
| 2026-05-06 15:07 | 50.42989 | 9.46092 | 9310 ft | 272 kts | 231° |
| 2026-05-06 15:07 | 50.41777 | 9.43843 | 8902 ft | 268 kts | 228° |
| 2026-05-06 15:07 | 50.40541 | 9.41681 | 8499 ft | 265 kts | 223° |
| 2026-05-06 15:07 | 50.39015 | 9.40118 | 8078 ft | 262 kts | 206° |
| 2026-05-06 15:08 | 50.37371 | 9.38966 | 7710 ft | 255 kts | 204° |
| 2026-05-06 15:08 | 50.35764 | 9.37915 | 7409 ft | 244 kts | 204° |
| 2026-05-06 15:08 | 50.34248 | 9.36824 | 7128 ft | 239 kts | 214° |
| 2026-05-06 15:08 | 50.32962 | 9.35174 | 6881 ft | 237 kts | 223° |
| 2026-05-06 15:09 | 50.31789 | 9.33445 | 6633 ft | 226 kts | 224° |
| 2026-05-06 15:09 | 50.30682 | 9.31786 | 6376 ft | 215 kts | 224° |
| 2026-05-06 15:09 | 50.29640 | 9.30226 | 6124 ft | 205 kts | 223° |
| 2026-05-06 15:09 | 50.28779 | 9.28502 | 5846 ft | 203 kts | 250° |
| 2026-05-06 15:10 | 50.28515 | 9.26290 | 5582 ft | 205 kts | 251° |
| 2026-05-06 15:10 | 50.27877 | 9.24369 | 5334 ft | 201 kts | 235° |
| 2026-05-06 15:10 | 50.27067 | 9.22596 | 5100 ft | 199 kts | 233° |
| 2026-05-06 15:10 | 50.26243 | 9.20834 | 4961 ft | 200 kts | 233° |
| 2026-05-06 15:11 | 50.25425 | 9.19086 | 4951 ft | 201 kts | 233° |
| 2026-05-06 15:11 | 50.24857 | 9.17876 | 4985 ft | 217 kts | 233° |
| 2026-05-06 15:11 | 50.23956 | 9.15951 | 5001 ft | 220 kts | 233° |
| 2026-05-06 15:11 | 50.23047 | 9.14006 | 4999 ft | 222 kts | 233° |
| 2026-05-06 15:12 | 50.22138 | 9.12062 | 4999 ft | 221 kts | 233° |
| 2026-05-06 15:12 | 50.21244 | 9.10149 | 4990 ft | 212 kts | 233° |
| 2026-05-06 15:12 | 50.20379 | 9.08284 | 4983 ft | 210 kts | 233° |
| 2026-05-06 15:12 | 50.19526 | 9.06443 | 4985 ft | 210 kts | 233° |
| 2026-05-06 15:13 | 50.18668 | 9.04584 | 4985 ft | 212 kts | 233° |
| 2026-05-06 15:13 | 50.17805 | 9.02728 | 4985 ft | 210 kts | 233° |
| 2026-05-06 15:13 | 50.16943 | 9.00886 | 4988 ft | 210 kts | 233° |
| 2026-05-06 15:13 | 50.16122 | 8.99119 | 4968 ft | 191 kts | 233° |
| 2026-05-06 15:14 | 50.15344 | 8.97443 | 4993 ft | 189 kts | 233° |
| 2026-05-06 15:14 | 50.14682 | 8.95679 | 4994 ft | 191 kts | 244° |
| 2026-05-06 15:14 | 50.14220 | 8.93817 | 5041 ft | 174 kts | 248° |
| 2026-05-06 15:14 | 50.13817 | 8.92115 | 5008 ft | 170 kts | 248° |
| 2026-05-06 15:15 | 50.13405 | 8.90378 | 4992 ft | 171 kts | 248° |
| 2026-05-06 15:15 | 50.12994 | 8.88651 | 4995 ft | 169 kts | 248° |
| 2026-05-06 15:15 | 50.12585 | 8.86933 | 4967 ft | 169 kts | 248° |
| 2026-05-06 15:15 | 50.12176 | 8.85215 | 4853 ft | 170 kts | 248° |
| 2026-05-06 15:16 | 50.11765 | 8.83487 | 4664 ft | 169 kts | 248° |
| 2026-05-06 15:16 | 50.11357 | 8.81776 | 4428 ft | 168 kts | 248° |
| 2026-05-06 15:16 | 50.10954 | 8.80084 | 4201 ft | 166 kts | 248° |
| 2026-05-06 15:16 | 50.10555 | 8.78411 | 3965 ft | 164 kts | 248° |
| 2026-05-06 15:17 | 50.10159 | 8.76747 | 3729 ft | 163 kts | 249° |
| 2026-05-06 15:17 | 50.09758 | 8.75065 | 3496 ft | 167 kts | 249° |
| 2026-05-06 15:17 | 50.09361 | 8.73397 | 3260 ft | 166 kts | 250° |
| 2026-05-06 15:17 | 50.08966 | 8.71741 | 3077 ft | 157 kts | 248° |
| 2026-05-06 15:18 | 50.08603 | 8.70216 | 2872 ft | 141 kts | 249° |
| 2026-05-06 15:18 | 50.08283 | 8.68876 | 2671 ft | 127 kts | 252° |
| 2026-05-06 15:18 | 50.07973 | 8.67572 | 2453 ft | 131 kts | 251° |
| 2026-05-06 15:18 | 50.07656 | 8.66249 | 2233 ft | 128 kts | 251° |
| 2026-05-06 15:19 | 50.07349 | 8.64961 | 2061 ft | 126 kts | 251° |
| 2026-05-06 15:19 | 50.07042 | 8.63672 | 1876 ft | 128 kts | 251° |
| 2026-05-06 15:19 | 50.06731 | 8.62377 | 1707 ft | 128 kts | 251° |
| 2026-05-06 15:19 | 50.06420 | 8.61090 | 1534 ft | 126 kts | 251° |
| 2026-05-06 15:20 | 50.06119 | 8.59803 | 1292 ft | 128 kts | 252° |
| 2026-05-06 15:20 | 50.05802 | 8.58528 | 1109 ft | 121 kts | 251° |
| 2026-05-06 15:20 | 50.05511 | 8.57292 | 893 ft | 126 kts | 252° |
| 2026-05-06 15:20 | 50.05208 | 8.56013 | 744 ft | 124 kts | 250° |
| 2026-05-06 15:21 | 50.04910 | 8.54764 | 615 ft | 119 kts | 253° |
| 2026-05-06 15:21 | 50.04624 | 8.53559 | 418 ft | 117 kts | 254° |
| 2026-05-06 15:21 | 50.04348 | 8.52412 | 353 ft | 102 kts | 251° |
| 2026-05-06 15:21 | 50.04163 | 8.51617 | 338 ft | 54 kts | 249° |
| 2026-05-06 15:22 | 50.04052 | 8.51184 | 335 ft | 42 kts | 240° |
| 2026-05-06 15:22 | 50.03949 | 8.50973 | 329 ft | 6 kts | 223° |
| 2026-05-06 15:22 | 50.03912 | 8.50920 | 331 ft | 8 kts | 222° |
| 2026-05-06 15:22 | 50.03861 | 8.50850 | 330 ft | 12 kts | 219° |
| 2026-05-06 15:23 | 50.03783 | 8.50888 | 336 ft | 16 kts | 97° |
| 2026-05-06 15:23 | 50.03813 | 8.51062 | 336 ft | 18 kts | 70° |
| 2026-05-06 15:23 | 50.03853 | 8.51228 | 337 ft | 14 kts | 70° |
| 2026-05-06 15:23 | 50.03888 | 8.51377 | 339 ft | 16 kts | 70° |
| 2026-05-06 15:24 | 50.03930 | 8.51547 | 348 ft | 18 kts | 69° |
| 2026-05-06 15:24 | 50.03975 | 8.51738 | 349 ft | 20 kts | 70° |
| 2026-05-06 15:24 | 50.04024 | 8.51950 | 351 ft | 22 kts | 70° |
| 2026-05-06 15:24 | 50.04075 | 8.52168 | 352 ft | 18 kts | 70° |
| 2026-05-06 15:25 | 50.04122 | 8.52359 | 355 ft | 20 kts | 68° |
| 2026-05-06 15:25 | 50.04174 | 8.52573 | 356 ft | 22 kts | 70° |
| 2026-05-06 15:25 | 50.04231 | 8.52811 | 360 ft | 24 kts | 69° |
| 2026-05-06 15:25 | 50.04284 | 8.53030 | 363 ft | 20 kts | 69° |
| 2026-05-06 15:26 | 50.04336 | 8.53245 | 370 ft | 23 kts | 69° |
| 2026-05-06 15:26 | 50.04391 | 8.53493 | 380 ft | 26 kts | 80° |
| 2026-05-06 15:26 | 50.04409 | 8.53740 | 381 ft | 21 kts | 84° |
| 2026-05-06 15:26 | 50.04423 | 8.53969 | 381 ft | 22 kts | 83° |
| 2026-05-06 15:27 | 50.04441 | 8.54207 | 381 ft | 23 kts | 84° |
| 2026-05-06 15:27 | 50.04452 | 8.54455 | 375 ft | 23 kts | 96° |
| 2026-05-06 15:27 | 50.04388 | 8.54683 | 369 ft | 24 kts | 135° |
| 2026-05-06 15:27 | 50.04246 | 8.54812 | 360 ft | 24 kts | 160° |
| 2026-05-06 15:28 | 50.04128 | 8.54876 | 357 ft | 17 kts | 160° |
| 2026-05-06 15:28 | 50.04015 | 8.54940 | 359 ft | 18 kts | 160° |
| 2026-05-06 15:28 | 50.03894 | 8.55007 | 355 ft | 19 kts | 155° |
| 2026-05-06 15:28 | 50.03862 | 8.55183 | 357 ft | 20 kts | 70° |
| 2026-05-06 15:29 | 50.03913 | 8.55387 | 357 ft | 21 kts | 69° |
| 2026-05-06 15:29 | 50.03963 | 8.55601 | 355 ft | 22 kts | 70° |
| 2026-05-06 15:29 | 50.04016 | 8.55825 | 360 ft | 23 kts | 69° |
| 2026-05-06 15:29 | 50.04071 | 8.56059 | 359 ft | 24 kts | 69° |
| 2026-05-06 15:30 | 50.04132 | 8.56301 | 359 ft | 25 kts | 69° |
| 2026-05-06 15:30 | 50.04192 | 8.56557 | 362 ft | 26 kts | 69° |
| 2026-05-06 15:30 | 50.04243 | 8.56762 | 366 ft | 18 kts | 47° |
| 2026-05-06 15:30 | 50.04359 | 8.56833 | 367 ft | 19 kts | 10° |
| 2026-05-06 15:31 | 50.04490 | 8.56871 | 365 ft | 20 kts | 12° |
| 2026-05-06 15:31 | 50.04624 | 8.56919 | 361 ft | 20 kts | 18° |
| 2026-05-06 15:31 | 50.04735 | 8.56991 | 361 ft | 9 kts | 25° |
| 2026-05-06 15:32 | 50.04802 | 8.56918 | 368 ft | 3 kts | 294° |
| 2026-05-06 15:32 | 50.04803 | 8.56913 | 365 ft | 0 kts | 294° |